createdAt,value
2023-03-16T00:02:24.344Z,100.00
2023-03-16T00:04:54.925Z,100.00
2023-03-16T00:07:21.801Z,100.00
2023-03-16T00:09:48.509Z,100.00
2023-03-16T00:12:20.188Z,100.00
2023-03-16T00:14:52.345Z,100.00
2023-03-16T00:17:21.137Z,100.00
2023-03-16T00:19:54.993Z,100.00
2023-03-16T00:22:30.701Z,100.00
2023-03-16T00:24:58.374Z,100.00
2023-03-16T00:27:29.793Z,100.00
2023-03-16T00:29:56.975Z,100.00
2023-03-16T00:32:36.146Z,100.00
2023-03-16T00:35:09.141Z,100.00
2023-03-16T00:37:37.703Z,100.00
2023-03-16T00:40:07.752Z,100.00
2023-03-16T00:42:34.851Z,100.00
2023-03-16T00:45:02.390Z,100.00
2023-03-16T00:47:34.589Z,100.00
2023-03-16T00:50:04.054Z,100.00
2023-03-16T00:52:31.022Z,100.00
2023-03-16T00:55:01.006Z,100.00
2023-03-16T00:57:32.672Z,100.00
2023-03-16T00:59:59.564Z,100.00
2023-03-16T01:02:34.424Z,100.00
2023-03-16T01:05:01.991Z,100.00
2023-03-16T01:07:31.721Z,100.00
2023-03-16T01:09:58.482Z,100.00
2023-03-16T01:12:34.469Z,100.00
2023-03-16T01:15:02.434Z,100.00
2023-03-16T01:17:29.388Z,100.00
2023-03-16T01:19:56.094Z,100.00
2023-03-16T01:22:28.879Z,100.00
2023-03-16T01:24:55.832Z,100.00
2023-03-16T01:27:26.312Z,100.00
2023-03-16T01:29:55.478Z,100.00
2023-03-16T01:32:22.400Z,100.00
2023-03-16T01:34:49.009Z,100.00
2023-03-16T01:37:15.755Z,100.00
2023-03-16T01:39:48.070Z,100.00
2023-03-16T01:42:15.288Z,100.00
2023-03-16T01:45:05.626Z,100.00
2023-03-16T01:47:38.292Z,100.00
2023-03-16T01:50:07.469Z,100.00
2023-03-16T01:52:46.567Z,100.00
2023-03-16T01:55:16.789Z,100.00
2023-03-16T01:57:47.616Z,100.00
2023-03-16T02:00:31.410Z,100.00
2023-03-16T02:03:37.956Z,100.00
2023-03-16T02:06:28.795Z,100.00
2023-03-16T02:09:00.532Z,100.00
2023-03-16T02:11:28.704Z,100.00
2023-03-16T02:14:09.237Z,100.00
2023-03-16T02:16:36.021Z,100.00
2023-03-16T02:19:09.506Z,100.00
2023-03-16T02:22:08.721Z,100.00
2023-03-16T02:24:42.335Z,100.00
2023-03-16T02:28:05.393Z,100.00
2023-03-16T02:30:32.875Z,100.00
2023-03-16T02:33:06.115Z,100.00
2023-03-16T02:35:33.552Z,100.00
2023-03-16T02:38:06.139Z,100.00
2023-03-16T02:40:58.133Z,100.00
2023-03-16T02:43:43.152Z,100.00
2023-03-16T02:46:11.098Z,100.00
2023-03-16T02:48:59.386Z,100.00
2023-03-16T02:51:31.006Z,100.00
2023-03-16T02:53:59.933Z,100.00
2023-03-16T02:56:35.734Z,100.00
2023-03-16T02:59:05.416Z,100.00
2023-03-16T03:01:34.802Z,100.00
2023-03-16T03:04:03.492Z,100.00
2023-03-16T03:06:36.076Z,100.00
2023-03-16T03:09:04.578Z,100.00
2023-03-16T03:11:31.922Z,100.00
2023-03-16T03:14:01.398Z,100.00
2023-03-16T03:16:28.120Z,100.00
2023-03-16T03:19:04.254Z,100.00
2023-03-16T03:21:34.347Z,100.00
2023-03-16T03:24:05.855Z,100.00
2023-03-16T03:26:35.572Z,100.00
2023-03-16T03:29:05.436Z,100.00
2023-03-16T03:31:32.291Z,100.00
2023-03-16T03:34:06.559Z,100.00
2023-03-16T03:36:44.229Z,100.00
2023-03-16T03:39:11.243Z,100.00
2023-03-16T03:41:44.038Z,100.00
2023-03-16T03:44:11.084Z,100.00
2023-03-16T03:46:38.035Z,100.00
2023-03-16T03:49:10.309Z,100.00
2023-03-16T03:51:37.102Z,100.00
2023-03-16T03:54:04.074Z,100.00
2023-03-16T03:56:30.884Z,100.00
2023-03-16T03:59:06.351Z,100.00
2023-03-16T04:01:33.108Z,100.00
2023-03-16T04:04:02.329Z,100.00
2023-03-16T04:06:29.552Z,100.00
2023-03-16T04:09:10.100Z,100.00
2023-03-16T04:11:38.046Z,100.00
2023-03-16T04:14:15.379Z,100.00
2023-03-16T04:16:47.459Z,100.00
2023-03-16T04:19:14.275Z,100.00
2023-03-16T04:21:49.447Z,100.00
2023-03-16T04:24:30.977Z,100.00
2023-03-16T04:27:05.238Z,100.00
2023-03-16T04:29:32.130Z,100.00
2023-03-16T04:31:58.917Z,100.00
2023-03-16T04:34:31.833Z,100.00
2023-03-16T04:37:03.459Z,100.00
2023-03-16T04:39:31.140Z,100.00
2023-03-16T04:42:19.162Z,100.00
2023-03-16T04:44:49.286Z,100.00
2023-03-16T04:47:17.849Z,100.00
2023-03-16T04:49:47.205Z,100.00
2023-03-16T04:52:16.923Z,100.00
2023-03-16T04:54:46.285Z,100.00
2023-03-16T04:57:15.076Z,100.00
2023-03-16T04:59:46.625Z,100.00
2023-03-16T05:02:14.292Z,100.00
2023-03-16T05:04:56.778Z,100.00
2023-03-16T05:07:23.636Z,100.00
2023-03-16T05:09:50.575Z,100.00
2023-03-16T05:12:29.931Z,100.00
2023-03-16T05:15:02.773Z,100.00
2023-03-16T05:17:29.842Z,100.00
2023-03-16T05:20:05.128Z,100.00
2023-03-16T05:22:32.069Z,100.00
2023-03-16T05:25:09.352Z,100.00
2023-03-16T05:27:38.660Z,100.00
2023-03-16T05:30:11.509Z,100.00
2023-03-16T05:32:47.192Z,100.00
2023-03-16T05:35:30.313Z,100.00
2023-03-16T06:00:20.756Z,100.00
2023-03-16T06:19:03.863Z,100.00
2023-03-16T06:29:36.405Z,100.00
2023-03-16T06:48:16.271Z,100.00
2023-03-16T06:50:46.718Z,100.00
2023-03-16T06:53:13.370Z,100.00
2023-03-16T06:55:46.099Z,100.00
2023-03-16T06:58:12.864Z,100.00
2023-03-16T07:00:41.459Z,100.00
2023-03-16T07:03:11.101Z,100.00
2023-03-16T07:05:37.756Z,100.00
2023-03-16T07:08:04.936Z,100.00
2023-03-16T07:10:32.346Z,100.00
2023-03-16T07:12:59.011Z,100.00
2023-03-16T07:15:31.035Z,100.00
2023-03-16T07:17:57.711Z,100.00
2023-03-16T07:20:24.557Z,100.00
2023-03-16T07:22:52.361Z,100.00
2023-03-16T07:25:19.517Z,100.00
2023-03-16T07:27:48.766Z,100.00
2023-03-16T07:30:21.810Z,100.00
2023-03-16T07:32:48.424Z,100.00
2023-03-16T07:35:19.636Z,100.00
2023-03-16T07:37:46.316Z,100.00
2023-03-16T07:40:17.346Z,100.00
2023-03-16T07:42:44.232Z,100.00
2023-03-16T07:45:14.427Z,100.00
2023-03-16T07:47:44.557Z,100.00
2023-03-16T07:50:13.776Z,100.00
2023-03-16T07:52:44.020Z,100.00
2023-03-16T07:55:14.544Z,100.00
2023-03-16T07:57:47.794Z,100.00
2023-03-16T08:00:16.021Z,100.00
2023-03-16T08:02:47.937Z,100.00
2023-03-16T08:05:18.413Z,100.00
2023-03-16T08:07:45.320Z,100.00
2023-03-16T08:10:12.887Z,100.00
2023-03-16T08:12:42.190Z,100.00
2023-03-16T08:15:10.274Z,100.00
2023-03-16T08:17:37.716Z,100.00
2023-03-16T08:20:11.753Z,100.00
2023-03-16T08:22:38.644Z,100.00
2023-03-16T08:25:11.993Z,100.00
2023-03-16T08:27:38.782Z,100.00
2023-03-16T08:30:14.378Z,100.00
2023-03-16T08:32:44.227Z,100.00
2023-03-16T08:35:16.476Z,100.00
2023-03-16T08:37:43.888Z,100.00
2023-03-16T08:40:16.024Z,100.00
2023-03-16T08:42:44.847Z,100.00
2023-03-16T08:45:14.933Z,100.00
2023-03-16T08:47:47.250Z,100.00
2023-03-16T08:50:15.519Z,100.00
2023-03-16T08:52:45.492Z,100.00
2023-03-16T08:55:16.222Z,100.00
2023-03-16T08:57:46.410Z,100.00
2023-03-16T09:00:17.944Z,100.00
2023-03-16T09:02:45.600Z,100.00
2023-03-16T09:05:15.943Z,100.00
2023-03-16T09:07:43.602Z,100.00
2023-03-16T09:10:15.945Z,100.00
2023-03-16T09:12:45.076Z,100.00
2023-03-16T09:15:16.161Z,100.00
2023-03-16T09:17:48.261Z,100.00
2023-03-16T09:20:22.666Z,100.00
2023-03-16T09:22:52.859Z,99.65
2023-03-16T09:25:20.507Z,97.21
2023-03-16T09:27:47.365Z,88.24
2023-03-16T09:30:18.133Z,87.59
2023-03-16T09:32:47.930Z,88.95
2023-03-16T09:35:18.053Z,88.78
2023-03-16T09:38:01.192Z,84.56
2023-03-16T09:40:36.335Z,89.57
2023-03-16T09:44:06.108Z,86.84
2023-03-16T09:46:48.605Z,85.85
2023-03-16T09:49:20.997Z,79.80
2023-03-16T09:52:43.701Z,78.32
2023-03-16T09:55:31.711Z,81.30
2023-03-16T09:58:01.733Z,76.70
2023-03-16T10:00:50.991Z,76.07
2023-03-16T10:04:01.856Z,72.23
2023-03-16T10:06:29.377Z,72.77
2023-03-16T10:09:31.931Z,69.85
2023-03-16T10:12:04.586Z,64.93
2023-03-16T10:15:09.411Z,69.28
2023-03-16T10:18:02.994Z,61.64
2023-03-16T10:20:38.051Z,63.31
2023-03-16T10:23:24.131Z,71.44
2023-03-16T10:25:55.927Z,62.63
2023-03-16T10:28:32.299Z,61.44
2023-03-16T10:31:01.690Z,56.74
2023-03-16T10:33:42.285Z,55.94
2023-03-16T10:36:36.007Z,59.88
2023-03-16T10:39:16.359Z,55.06
2023-03-16T10:41:54.226Z,55.98
2023-03-16T10:44:32.063Z,56.16
2023-03-16T10:47:06.379Z,54.40
2023-03-16T10:49:57.916Z,55.03
2023-03-16T11:04:18.082Z,52.57
2023-03-16T11:06:57.759Z,50.03
2023-03-16T11:09:37.185Z,51.78
2023-03-16T11:12:15.429Z,48.09
2023-03-16T11:14:46.671Z,47.03
2023-03-16T11:17:29.216Z,50.48
2023-03-16T11:20:17.862Z,48.78
2023-03-16T11:22:48.427Z,52.35
2023-03-16T11:25:29.087Z,47.80
2023-03-16T11:28:17.718Z,48.41
2023-03-16T11:31:10.849Z,51.79
2023-03-16T11:33:43.064Z,47.67
2023-03-16T11:36:50.267Z,44.79
2023-03-16T11:40:00.505Z,47.08
2023-03-16T11:43:30.434Z,46.52
2023-03-16T11:46:12.474Z,47.44
2023-03-16T11:49:05.236Z,52.91
2023-03-16T11:52:40.676Z,48.60
2023-03-16T11:56:08.337Z,46.51
2023-03-16T11:59:23.443Z,48.63
2023-03-16T12:02:55.975Z,44.40
2023-03-16T12:06:17.047Z,44.44
2023-03-16T12:09:33.830Z,40.82
2023-03-16T12:12:43.318Z,42.30
2023-03-16T12:15:36.017Z,42.51
2023-03-16T12:18:36.348Z,42.79
2023-03-16T12:21:36.371Z,43.20
2023-03-16T12:24:13.450Z,40.34
2023-03-16T12:26:45.332Z,39.87
2023-03-16T12:29:42.025Z,41.97
2023-03-16T12:32:26.032Z,40.50
2023-03-16T12:36:09.508Z,40.54
2023-03-16T12:38:53.537Z,42.33
2023-03-16T12:42:02.049Z,42.43
2023-03-16T12:44:49.957Z,41.43
2023-03-16T12:48:04.672Z,40.67
2023-03-16T12:50:31.815Z,38.39
2023-03-16T12:52:58.731Z,38.85
2023-03-16T12:55:50.425Z,39.48
2023-03-16T12:58:18.477Z,35.63
2023-03-16T13:01:00.190Z,36.17
2023-03-16T13:03:28.448Z,35.79
2023-03-16T13:06:03.338Z,37.73
2023-03-16T13:08:59.837Z,35.41
2023-03-16T13:11:31.355Z,32.11
2023-03-16T13:14:01.105Z,36.21
2023-03-16T13:16:37.562Z,33.56
2023-03-16T13:19:29.767Z,35.18
2023-03-16T13:22:29.666Z,36.54
2023-03-16T13:25:22.059Z,37.05
2023-03-16T13:28:00.669Z,36.91
2023-03-16T13:30:34.891Z,36.26
2023-03-16T13:33:26.572Z,35.59
2023-03-16T13:36:04.482Z,35.34
2023-03-16T13:38:31.383Z,36.64
2023-03-16T13:41:32.931Z,39.03
2023-03-16T13:43:59.572Z,36.73
2023-03-16T13:46:31.058Z,36.41
2023-03-16T13:49:02.966Z,36.79
2023-03-16T13:51:37.963Z,38.28
2023-03-16T13:54:28.416Z,36.18
2023-03-16T13:57:07.197Z,34.64
2023-03-16T13:59:34.117Z,34.50
2023-03-16T14:02:03.940Z,34.75
2023-03-16T14:04:34.979Z,35.62
2023-03-16T14:07:03.658Z,35.17
2023-03-16T14:09:35.892Z,37.63
2023-03-16T14:12:03.592Z,38.58
2023-03-16T14:14:52.342Z,38.94
2023-03-16T14:17:22.099Z,39.07
2023-03-16T14:19:59.952Z,36.85
2023-03-16T14:22:45.005Z,36.67
2023-03-16T14:25:23.664Z,37.60
2023-03-16T14:28:07.449Z,37.91
2023-03-16T14:30:34.184Z,39.44
2023-03-16T14:33:24.963Z,38.65
2023-03-16T14:36:10.382Z,37.99
2023-03-16T14:38:38.020Z,39.69
2023-03-16T14:41:30.033Z,38.69
2023-03-16T14:44:04.142Z,38.28
2023-03-16T14:46:38.698Z,40.50
2023-03-16T14:49:37.542Z,40.20
2023-03-16T14:52:23.935Z,38.12
2023-03-16T14:54:52.182Z,38.75
2023-03-16T14:57:19.607Z,39.41
2023-03-16T14:59:46.726Z,37.89
2023-03-16T15:02:33.368Z,38.16
2023-03-16T15:05:05.241Z,37.78
2023-03-16T15:07:47.110Z,37.62
2023-03-16T15:10:34.420Z,38.35
2023-03-16T15:13:06.556Z,37.90
2023-03-16T15:15:33.934Z,37.61
2023-03-16T15:18:00.822Z,38.52
2023-03-16T15:20:53.845Z,38.50
2023-03-16T15:23:23.940Z,39.70
2023-03-16T15:25:59.945Z,41.12
2023-03-16T15:28:31.710Z,38.69
2023-03-16T15:31:02.908Z,39.79
2023-03-16T15:33:31.518Z,40.07
2023-03-16T15:36:10.683Z,40.10
2023-03-16T15:39:02.205Z,40.04
2023-03-16T15:41:35.249Z,39.52
2023-03-16T15:44:13.397Z,41.63
2023-03-16T15:46:46.339Z,40.68
2023-03-16T15:49:16.989Z,42.56
2023-03-16T15:51:47.829Z,41.80
2023-03-16T15:54:14.617Z,41.12
2023-03-16T15:56:54.330Z,40.66
2023-03-16T15:59:27.199Z,40.65
2023-03-16T16:01:53.934Z,41.82
2023-03-16T16:04:24.261Z,41.26
2023-03-16T16:06:55.237Z,41.75
2023-03-16T16:09:23.612Z,41.13
2023-03-16T16:11:51.458Z,42.65
2023-03-16T16:14:25.884Z,41.01
2023-03-16T16:16:57.107Z,42.04
2023-03-16T16:19:24.157Z,42.48
2023-03-16T16:21:51.017Z,41.40
2023-03-16T16:24:18.382Z,43.93
2023-03-16T16:26:55.271Z,41.54
2023-03-16T16:29:34.777Z,42.54
2023-03-16T16:32:02.015Z,43.25
2023-03-16T16:34:28.874Z,43.80
2023-03-16T16:36:59.535Z,44.00
2023-03-16T16:39:27.258Z,42.77
2023-03-16T16:41:56.469Z,43.14
2023-03-16T16:44:33.818Z,43.71
2023-03-16T16:47:03.395Z,42.81
2023-03-16T16:49:31.385Z,45.26
2023-03-16T16:51:59.594Z,44.92
2023-03-16T16:54:41.552Z,44.58
2023-03-16T16:57:19.741Z,44.70
2023-03-16T16:59:49.660Z,45.49
2023-03-16T17:02:42.216Z,46.88
2023-03-16T17:16:35.305Z,46.71
2023-03-16T17:49:50.881Z,49.99
2023-03-16T17:52:29.401Z,49.36
2023-03-16T17:54:58.337Z,50.75
2023-03-16T18:20:33.621Z,51.37
2023-03-16T18:23:41.990Z,51.66
2023-03-16T18:28:53.934Z,51.54
2023-03-16T18:51:26.908Z,51.18
2023-03-16T18:53:56.124Z,50.29
2023-03-16T18:56:28.839Z,51.28
2023-03-16T19:30:34.601Z,54.83
2023-03-16T19:33:09.870Z,53.90
2023-03-16T20:11:48.161Z,55.64
2023-03-16T20:20:37.533Z,54.56
2023-03-16T20:23:29.204Z,54.35
2023-03-16T20:40:20.403Z,56.01
2023-03-16T20:42:48.541Z,55.69
2023-03-16T20:51:06.410Z,56.49
2023-03-16T21:07:56.979Z,56.59
2023-03-16T21:24:11.641Z,58.80
2023-03-16T21:38:19.668Z,58.11
2023-03-16T21:43:31.507Z,59.10
2023-03-16T21:45:59.653Z,58.81
2023-03-16T21:48:54.671Z,59.30
2023-03-16T21:51:32.774Z,58.92
2023-03-16T21:54:02.565Z,58.27
2023-03-16T21:56:29.289Z,57.77
2023-03-16T21:58:56.420Z,59.37
2023-03-16T22:01:31.501Z,58.95
2023-03-16T22:04:11.581Z,60.58
2023-03-16T22:06:48.330Z,59.95
2023-03-16T22:09:22.503Z,59.07
2023-03-16T22:11:49.438Z,58.92
2023-03-16T22:14:17.452Z,60.89
2023-03-16T22:16:44.376Z,62.22
2023-03-16T22:19:19.202Z,61.17
2023-03-16T22:21:50.087Z,61.16
2023-03-16T22:24:25.038Z,60.71
2023-03-16T22:26:52.670Z,61.50
2023-03-16T22:29:36.484Z,61.80
2023-03-16T22:32:19.374Z,62.40
2023-03-16T22:34:58.030Z,63.10
2023-03-16T22:37:28.975Z,62.51
2023-03-16T22:39:58.770Z,63.59
2023-03-16T22:42:38.812Z,62.78
2023-03-16T22:45:21.360Z,65.46
2023-03-16T22:47:53.227Z,66.27
2023-03-16T22:50:25.521Z,65.32
2023-03-16T22:53:00.876Z,63.22
2023-03-16T22:55:41.851Z,64.47
2023-03-16T22:58:34.608Z,64.97
2023-03-16T23:01:17.114Z,67.04
2023-03-16T23:03:50.170Z,65.87
2023-03-16T23:06:29.932Z,65.83
2023-03-16T23:08:59.796Z,65.23
2023-03-16T23:11:32.896Z,65.99
2023-03-16T23:14:03.819Z,64.99
2023-03-16T23:16:38.423Z,66.01
2023-03-16T23:19:34.699Z,64.44
2023-03-16T23:22:07.355Z,67.48
2023-03-16T23:24:38.247Z,66.55
2023-03-16T23:27:16.450Z,67.59
2023-03-16T23:29:44.176Z,66.70
2023-03-16T23:32:11.817Z,66.91
2023-03-16T23:34:38.648Z,67.15
2023-03-16T23:37:05.381Z,68.66
2023-03-16T23:39:32.222Z,69.77
2023-03-16T23:41:59.156Z,69.22
2023-03-16T23:44:31.731Z,69.07
2023-03-16T23:47:02.321Z,69.05
2023-03-16T23:49:37.068Z,68.65
2023-03-16T23:52:04.559Z,70.79
2023-03-16T23:54:38.868Z,70.97
2023-03-16T23:57:06.138Z,70.91
2023-03-16T23:59:33.146Z,69.54
